createdAt,value
2022-11-02T00:00:15.792Z,96828.22
2022-11-02T00:04:28.079Z,96832.72
2022-11-02T00:08:40.399Z,96839.88
2022-11-02T00:13:03.216Z,96841.16
2022-11-02T00:17:18.470Z,96830.66
2022-11-02T00:21:31.047Z,96835.84
2022-11-02T00:25:47.076Z,96839.44
2022-11-02T00:30:02.805Z,96836.78
2022-11-02T00:34:15.083Z,96836.78
2022-11-02T00:38:27.368Z,96847.13
2022-11-02T00:42:39.670Z,96849.59
2022-11-02T00:46:53.653Z,96847.91
2022-11-02T00:51:06.061Z,96850.22
2022-11-02T00:55:18.932Z,96851.59
2022-11-02T00:59:31.429Z,96849.38
2022-11-02T01:03:43.750Z,96846.69
2022-11-02T01:07:56.148Z,96863.63
2022-11-02T01:12:08.759Z,96856.06
2022-11-02T01:16:21.705Z,96860.88
2022-11-02T01:20:34.038Z,96855.44
2022-11-02T01:24:46.357Z,96861.91
2022-11-02T01:28:58.679Z,96871.19
2022-11-02T01:33:10.961Z,96865.00
2022-11-02T01:37:23.626Z,96862.69
2022-11-02T01:41:35.950Z,96862.50
2022-11-02T01:46:06.565Z,96867.84
2022-11-02T01:50:22.468Z,96868.78
2022-11-02T01:54:46.269Z,96867.75
2022-11-02T01:59:03.830Z,96877.22
2022-11-02T02:03:19.190Z,96873.59
2022-11-02T02:07:32.722Z,96862.34
2022-11-02T02:11:45.045Z,96867.41
2022-11-02T02:16:09.333Z,96861.56
2022-11-02T02:20:21.605Z,96873.00
2022-11-02T02:24:42.856Z,96867.66
2022-11-02T02:29:03.683Z,96873.84
2022-11-02T02:33:34.963Z,96885.13
2022-11-02T02:37:59.363Z,96874.97
2022-11-02T02:42:25.861Z,96879.78
2022-11-02T02:46:46.352Z,96883.13
2022-11-02T02:51:05.970Z,96880.97
2022-11-02T02:55:30.244Z,96876.91
2022-11-02T02:59:44.462Z,96889.69
2022-11-02T03:03:56.836Z,96880.81
2022-11-02T03:08:13.250Z,96884.34
2022-11-02T03:12:53.257Z,96894.06
2022-11-02T03:17:19.033Z,96903.31
2022-11-02T03:21:41.879Z,96895.47
2022-11-02T03:26:19.021Z,96900.88
2022-11-02T03:30:40.125Z,96909.59
2022-11-02T03:34:59.649Z,96922.53
2022-11-02T03:39:15.672Z,96919.09
2022-11-02T03:43:31.891Z,96920.59
2022-11-02T03:47:47.917Z,96915.78
2022-11-02T03:52:02.702Z,96928.50
2022-11-02T03:56:22.196Z,96938.91
2022-11-02T04:00:36.793Z,96942.28
2022-11-02T04:04:51.368Z,96939.09
2022-11-02T04:09:03.856Z,96945.28
2022-11-02T04:13:54.363Z,96937.66
2022-11-02T04:18:25.363Z,96949.50
2022-11-02T04:22:56.045Z,96945.72
2022-11-02T04:27:08.338Z,96937.63
2022-11-02T04:31:20.723Z,96942.53
2022-11-02T04:35:33.802Z,96941.84
2022-11-02T04:39:46.085Z,96924.03
2022-11-02T04:43:58.676Z,96930.41
2022-11-02T04:48:11.059Z,96929.69
2022-11-02T04:52:23.398Z,96925.00
2022-11-02T04:56:35.722Z,96924.16
2022-11-02T05:00:48.043Z,96919.34
2022-11-02T05:05:00.342Z,96910.97
2022-11-02T05:09:12.660Z,96918.75
2022-11-02T05:13:26.898Z,96916.03
2022-11-02T05:17:39.310Z,96917.53
2022-11-02T05:21:51.707Z,96923.53
2022-11-02T05:26:11.043Z,96933.28
2022-11-02T05:30:23.570Z,96939.28
2022-11-02T05:34:36.254Z,96950.03
2022-11-02T05:38:48.520Z,96954.06
2022-11-02T05:43:02.007Z,96941.88
2022-11-02T05:47:14.512Z,96943.66
2022-11-02T05:51:32.510Z,96944.88
2022-11-02T05:55:44.835Z,96941.44
2022-11-02T05:59:57.158Z,96941.59
2022-11-02T06:04:09.552Z,96944.28
2022-11-02T06:08:21.898Z,96949.16
2022-11-02T06:12:34.308Z,96964.56
2022-11-02T06:16:46.669Z,96967.50
2022-11-02T06:20:59.759Z,96973.88
2022-11-02T06:25:13.016Z,96981.25
2022-11-02T06:29:25.365Z,96974.72
2022-11-02T06:33:42.947Z,96986.25
2022-11-02T06:37:55.273Z,96982.53
2022-11-02T06:42:07.585Z,96988.31
2022-11-02T06:46:21.554Z,96995.00
2022-11-02T06:50:33.893Z,97002.66
2022-11-02T06:54:47.435Z,96994.50
2022-11-02T06:58:59.810Z,97013.47
2022-11-02T07:03:12.368Z,97012.09
2022-11-02T07:07:24.752Z,97010.59
2022-11-02T07:11:37.134Z,97011.69
2022-11-02T07:15:53.972Z,97016.63
2022-11-02T07:20:06.930Z,96999.31
2022-11-02T07:24:19.210Z,97009.94
2022-11-02T07:28:31.957Z,97014.28
2022-11-02T07:32:45.810Z,97026.16
2022-11-02T07:36:59.885Z,97021.16
2022-11-02T07:41:12.223Z,97024.34
2022-11-02T07:45:34.633Z,97035.69
2022-11-02T07:49:46.910Z,97022.75
2022-11-02T07:54:00.398Z,96996.03
2022-11-02T07:58:16.084Z,97013.63
2022-11-02T08:02:28.981Z,97016.63
2022-11-02T08:06:41.323Z,97023.38
2022-11-02T08:10:53.871Z,97036.88
2022-11-02T08:15:07.844Z,97029.50
2022-11-02T08:19:20.318Z,97027.16
2022-11-02T08:23:32.640Z,97029.72
2022-11-02T08:27:44.987Z,97032.16
2022-11-02T08:31:59.216Z,97029.50
2022-11-02T08:36:12.038Z,97032.34
2022-11-02T08:40:24.610Z,97034.47
2022-11-02T08:44:42.257Z,97046.06
2022-11-02T08:48:54.933Z,97042.84
2022-11-02T08:53:08.052Z,97040.59
2022-11-02T08:57:20.324Z,97041.22
2022-11-02T09:01:33.619Z,97043.34
2022-11-02T09:05:48.114Z,97041.22
2022-11-02T09:10:00.472Z,97037.38
2022-11-02T09:14:12.764Z,97047.13
2022-11-02T09:18:33.851Z,97047.91
2022-11-02T09:22:55.775Z,97050.13
2022-11-02T09:27:08.067Z,97058.97
2022-11-02T09:31:20.338Z,97060.25
2022-11-02T09:35:38.513Z,97068.53
2022-11-02T09:39:51.530Z,97070.28
2022-11-02T09:44:15.610Z,97073.22
2022-11-02T09:48:32.748Z,97078.38
2022-11-02T09:53:00.707Z,97080.03
2022-11-02T09:57:18.015Z,97084.75
2022-11-02T10:01:48.827Z,97080.41
2022-11-02T10:06:16.388Z,97072.31
2022-11-02T10:10:56.764Z,97081.50
2022-11-02T10:15:22.603Z,97087.31
2022-11-02T10:19:40.709Z,97087.47
2022-11-02T10:23:55.645Z,97076.88
2022-11-02T10:28:19.535Z,97091.72
2022-11-02T10:37:40.647Z,97092.13
2022-11-02T10:41:59.187Z,97087.72
2022-11-02T10:46:14.433Z,97086.69
2022-11-02T10:50:52.630Z,97085.63
2022-11-02T10:55:31.246Z,97092.53
2022-11-02T11:00:28.045Z,97086.19
2022-11-02T11:04:41.881Z,97073.50
2022-11-02T11:09:01.132Z,97076.75
2022-11-02T11:22:39.911Z,97072.22
2022-11-02T11:27:13.634Z,97065.53
2022-11-02T11:31:26.893Z,97061.53
2022-11-02T11:35:40.759Z,97068.78
2022-11-02T11:42:02.811Z,97068.69
2022-11-02T11:46:05.997Z,97061.38
2022-11-02T11:50:25.764Z,97069.28
2022-11-02T11:54:39.604Z,97071.84
2022-11-02T11:58:52.187Z,97082.00
2022-11-02T12:03:11.997Z,97069.75
2022-11-02T12:07:33.223Z,97075.63
2022-11-02T12:11:51.341Z,97069.78
2022-11-02T12:16:32.006Z,97061.63
2022-11-02T12:20:56.237Z,97053.81
2022-11-02T12:25:34.445Z,97051.78
2022-11-02T12:30:11.612Z,97040.84
2022-11-02T12:34:34.682Z,97052.03
2022-11-02T12:39:32.787Z,97043.41
2022-11-02T12:44:05.389Z,97043.56
2022-11-02T12:48:43.447Z,97034.25
2022-11-02T12:53:08.178Z,97021.41
2022-11-02T13:24:46.278Z,97006.00
2022-11-02T13:29:45.967Z,97020.53
2022-11-02T13:34:50.249Z,97020.31
2022-11-02T13:40:07.227Z,96995.09
2022-11-02T13:44:57.549Z,97007.16
2022-11-02T13:49:22.890Z,97007.22
2022-11-02T13:53:39.800Z,97016.16
2022-11-02T13:57:58.638Z,97012.84
2022-11-02T14:02:17.484Z,97012.63
2022-11-02T14:06:32.337Z,97011.91
2022-11-02T14:10:44.606Z,96999.84
2022-11-02T14:15:14.982Z,97016.59
2022-11-02T14:19:48.957Z,97017.88
2022-11-02T14:24:01.689Z,97016.47
2022-11-02T14:28:21.000Z,97013.72
2022-11-02T14:32:51.042Z,97007.03
2022-11-02T14:37:26.323Z,97010.22
2022-11-02T14:41:45.004Z,96998.94
2022-11-02T14:46:09.755Z,96989.94
2022-11-02T14:50:22.507Z,96993.00
2022-11-02T14:54:47.177Z,96987.16
2022-11-02T14:58:59.761Z,96997.00
2022-11-02T15:03:27.186Z,96990.25
2022-11-02T15:07:47.984Z,96980.56
2022-11-02T15:12:03.416Z,96974.09
2022-11-02T15:16:17.691Z,96985.59
2022-11-02T15:20:32.818Z,96988.94
2022-11-02T15:24:47.163Z,96978.88
2022-11-02T15:29:03.317Z,96979.41
2022-11-02T15:33:23.564Z,96971.91
2022-11-02T15:37:50.325Z,96963.78
2022-11-02T15:42:41.250Z,96971.47
2022-11-02T15:47:18.735Z,96977.78
2022-11-02T15:51:48.902Z,96983.88
2022-11-02T15:56:38.270Z,96986.31
2022-11-02T16:01:19.596Z,96980.41
2022-11-02T16:05:42.349Z,96982.69
2022-11-02T16:09:55.015Z,96984.50
2022-11-02T16:14:18.960Z,96981.97
2022-11-02T16:18:38.247Z,96973.66
2022-11-02T16:22:52.161Z,96976.63
2022-11-02T16:27:04.642Z,96979.50
2022-11-02T16:31:31.924Z,96967.44
2022-11-02T16:35:44.406Z,96970.16
2022-11-02T16:39:57.581Z,96988.03
2022-11-02T16:44:19.427Z,96978.63
2022-11-02T16:48:34.046Z,96983.22
2022-11-02T16:53:04.390Z,96986.72
2022-11-02T16:57:23.378Z,96978.63
2022-11-02T17:01:40.944Z,96985.09
2022-11-02T17:05:54.002Z,96981.41
2022-11-02T17:10:07.748Z,96976.94
2022-11-02T17:14:22.273Z,96980.81
2022-11-02T17:18:35.118Z,96975.50
2022-11-02T17:23:05.923Z,96976.44
2022-11-02T17:27:37.717Z,96979.56
2022-11-02T17:32:01.277Z,96984.38
2022-11-02T17:36:14.304Z,96989.34
2022-11-02T17:40:26.718Z,96987.63
2022-11-02T17:44:39.437Z,96992.09
2022-11-02T17:48:51.783Z,96990.38
2022-11-02T17:53:06.132Z,97000.75
2022-11-02T17:57:19.911Z,96997.81
2022-11-02T18:01:37.272Z,96992.41
2022-11-02T18:05:52.544Z,96991.69
2022-11-02T18:10:07.364Z,96983.53
2022-11-02T18:14:19.708Z,96986.00
2022-11-02T18:18:32.038Z,96977.72
2022-11-02T18:22:44.867Z,96978.56
2022-11-02T18:26:57.165Z,96964.81
2022-11-02T18:31:10.148Z,96960.66
2022-11-02T18:35:23.510Z,96950.69
2022-11-02T18:39:35.931Z,96947.84
2022-11-02T18:43:48.661Z,96939.34
2022-11-02T18:48:01.064Z,96926.22
2022-11-02T18:52:19.815Z,96925.19
2022-11-02T18:56:35.011Z,96926.81
2022-11-02T19:00:47.440Z,96917.72
2022-11-02T19:05:00.102Z,96913.44
2022-11-02T19:09:20.913Z,96908.28
2022-11-02T19:13:33.691Z,96903.28
2022-11-02T19:17:46.064Z,96894.00
2022-11-02T19:21:58.587Z,96908.22
2022-11-02T19:26:11.232Z,96894.97
2022-11-02T19:30:23.630Z,96890.69
2022-11-02T19:34:37.590Z,96884.56
2022-11-02T19:38:49.935Z,96878.50
2022-11-02T19:43:02.279Z,96874.97
2022-11-02T19:47:14.591Z,96870.06
2022-11-02T19:51:29.624Z,96875.63
2022-11-02T19:55:41.991Z,96877.28
2022-11-02T19:59:54.337Z,96869.13
2022-11-02T20:04:07.468Z,96863.44
2022-11-02T20:08:19.909Z,96848.88
2022-11-02T20:12:34.775Z,96849.41
2022-11-02T20:16:58.273Z,96859.63
2022-11-02T20:21:12.994Z,96851.44
2022-11-02T20:25:26.491Z,96861.72
2022-11-02T20:29:41.407Z,96851.56
2022-11-02T20:33:53.808Z,96847.22
2022-11-02T20:38:06.654Z,96844.44
2022-11-02T20:42:19.235Z,96845.38
2022-11-02T20:46:41.950Z,96841.84
2022-11-02T20:50:55.018Z,96841.72
2022-11-02T20:55:09.342Z,96846.06
2022-11-02T20:59:21.888Z,96833.59
2022-11-02T21:03:37.939Z,96836.44
2022-11-02T21:07:52.672Z,96836.88
2022-11-02T21:12:23.916Z,96835.44
2022-11-02T21:16:46.668Z,96840.97
2022-11-02T21:21:05.903Z,96832.44
2022-11-02T21:25:19.019Z,96830.13
2022-11-02T21:29:31.756Z,96827.06
2022-11-02T21:33:45.400Z,96827.50
2022-11-02T21:38:01.227Z,96831.81
2022-11-02T21:42:16.154Z,96827.22
2022-11-02T21:46:29.254Z,96828.88
2022-11-02T21:50:41.697Z,96835.19
2022-11-02T21:54:54.396Z,96830.53
2022-11-02T21:59:07.338Z,96827.47
2022-11-02T22:03:19.678Z,96813.53
2022-11-02T22:07:52.142Z,96821.34
2022-11-02T22:12:23.296Z,96824.19
2022-11-02T22:16:46.033Z,96812.03
2022-11-02T22:20:59.191Z,96787.88
2022-11-02T22:25:11.491Z,96798.06
2022-11-02T22:29:23.941Z,96788.63
2022-11-02T22:33:37.139Z,96788.53
2022-11-02T22:38:08.047Z,96780.41
2022-11-02T22:42:20.635Z,96788.69
2022-11-02T22:46:35.992Z,96795.41
2022-11-02T22:50:48.324Z,96785.88
2022-11-02T22:55:00.838Z,96791.66
2022-11-02T22:59:13.897Z,96781.56
2022-11-02T23:03:26.739Z,96785.34
2022-11-02T23:07:39.217Z,96780.06
2022-11-02T23:11:51.653Z,96776.63
2022-11-02T23:16:24.453Z,96770.38
2022-11-02T23:20:37.421Z,96765.06
2022-11-02T23:25:13.317Z,96757.22
2022-11-02T23:29:44.098Z,96753.41
2022-11-02T23:33:56.506Z,96747.53
2022-11-02T23:38:09.086Z,96752.25
2022-11-02T23:42:21.571Z,96744.13
2022-11-02T23:46:33.942Z,96736.22
2022-11-02T23:51:04.840Z,96742.53
2022-11-02T23:55:35.876Z,96744.94
2022-11-02T23:59:48.198Z,96742.63
